Terminal Aerodrome Forecast
Issued by NWS

Home | Current Version | Previous Version | Text Only | Print | Product List | Glossary On
Versions: 1 2 3 4 5 6 7 8 9 10 11 12 13 14
543
FTUS41 KPBZ 242336
TAFAGC
TAF
KAGC 242336Z 2500/2524 09008KT P6SM VCSH OVC070
     FM250400 09007KT P6SM OVC050
     FM252300 08007KT P6SM SCT030=

USA.gov is the U.S. government's official web portal to all federal, state and local government web resources and services.